sensor_id;sensor_type;location;lat;lon;timestamp;temperature;humidity
40059;SHT31;25763;49.972;8.568;2023-04-10T00:01:00;6.65;70.22
40059;SHT31;25763;49.972;8.568;2023-04-10T00:03:26;6.63;70.71
40059;SHT31;25763;49.972;8.568;2023-04-10T00:05:52;6.58;70.55
40059;SHT31;25763;49.972;8.568;2023-04-10T00:08:20;6.57;70.68
40059;SHT31;25763;49.972;8.568;2023-04-10T00:10:45;6.57;70.75
40059;SHT31;25763;49.972;8.568;2023-04-10T00:13:11;6.58;70.40
40059;SHT31;25763;49.972;8.568;2023-04-10T00:15:36;6.57;70.35
40059;SHT31;25763;49.972;8.568;2023-04-10T00:18:02;6.55;70.16
40059;SHT31;25763;49.972;8.568;2023-04-10T00:20:27;6.54;70.33
40059;SHT31;25763;49.972;8.568;2023-04-10T00:22:52;6.55;70.58
40059;SHT31;25763;49.972;8.568;2023-04-10T00:25:18;6.55;70.54
40059;SHT31;25763;49.972;8.568;2023-04-10T00:27:44;6.54;70.61
40059;SHT31;25763;49.972;8.568;2023-04-10T00:30:09;6.50;70.64
40059;SHT31;25763;49.972;8.568;2023-04-10T00:32:35;6.50;70.57
40059;SHT31;25763;49.972;8.568;2023-04-10T00:35:01;6.37;70.97
40059;SHT31;25763;49.972;8.568;2023-04-10T00:37:27;6.09;71.92
40059;SHT31;25763;49.972;8.568;2023-04-10T00:39:52;5.95;72.31
40059;SHT31;25763;49.972;8.568;2023-04-10T00:42:18;5.64;73.03
40059;SHT31;25763;49.972;8.568;2023-04-10T00:44:43;5.47;73.55
40059;SHT31;25763;49.972;8.568;2023-04-10T00:47:08;5.33;74.00
40059;SHT31;25763;49.972;8.568;2023-04-10T00:49:34;5.32;73.87
40059;SHT31;25763;49.972;8.568;2023-04-10T00:52:00;5.43;73.61
40059;SHT31;25763;49.972;8.568;2023-04-10T00:54:25;5.38;74.15
40059;SHT31;25763;49.972;8.568;2023-04-10T00:56:51;5.26;74.44
40059;SHT31;25763;49.972;8.568;2023-04-10T00:59:16;5.15;74.81
40059;SHT31;25763;49.972;8.568;2023-04-10T01:01:42;5.07;74.86
40059;SHT31;25763;49.972;8.568;2023-04-10T01:04:08;5.12;74.86
40059;SHT31;25763;49.972;8.568;2023-04-10T01:09:09;5.42;74.32
40059;SHT31;25763;49.972;8.568;2023-04-10T01:11:52;5.57;74.06
40059;SHT31;25763;49.972;8.568;2023-04-10T01:17:16;5.70;73.28
40059;SHT31;25763;49.972;8.568;2023-04-10T01:20:01;5.73;72.87
40059;SHT31;25763;49.972;8.568;2023-04-10T01:22:39;5.74;72.83
40059;SHT31;25763;49.972;8.568;2023-04-10T01:25:33;5.77;73.10
40059;SHT31;25763;49.972;8.568;2023-04-10T01:30:45;5.75;72.69
40059;SHT31;25763;49.972;8.568;2023-04-10T01:33:12;5.78;73.00
40059;SHT31;25763;49.972;8.568;2023-04-10T01:35:42;5.80;72.79
40059;SHT31;25763;49.972;8.568;2023-04-10T01:38:08;5.77;72.79
40059;SHT31;25763;49.972;8.568;2023-04-10T01:40:37;5.77;72.65
40059;SHT31;25763;49.972;8.568;2023-04-10T01:43:05;5.74;72.93
40059;SHT31;25763;49.972;8.568;2023-04-10T01:45:33;5.62;73.36
40059;SHT31;25763;49.972;8.568;2023-04-10T01:47:59;5.43;73.98
40059;SHT31;25763;49.972;8.568;2023-04-10T01:50:25;5.21;74.38
40059;SHT31;25763;49.972;8.568;2023-04-10T01:52:53;4.94;74.99
40059;SHT31;25763;49.972;8.568;2023-04-10T01:55:21;4.76;75.62
40059;SHT31;25763;49.972;8.568;2023-04-10T01:57:47;4.49;76.45
40059;SHT31;25763;49.972;8.568;2023-04-10T02:00:14;4.34;76.91
40059;SHT31;25763;49.972;8.568;2023-04-10T02:02:40;4.35;76.78
40059;SHT31;25763;49.972;8.568;2023-04-10T02:05:07;4.52;76.13
40059;SHT31;25763;49.972;8.568;2023-04-10T02:07:58;4.73;75.65
40059;SHT31;25763;49.972;8.568;2023-04-10T02:10:39;4.90;75.27
40059;SHT31;25763;49.972;8.568;2023-04-10T02:13:06;4.87;75.45
40059;SHT31;25763;49.972;8.568;2023-04-10T02:15:33;4.58;77.25
40059;SHT31;25763;49.972;8.568;2023-04-10T02:17:59;4.44;77.84
40059;SHT31;25763;49.972;8.568;2023-04-10T02:20:26;4.45;77.50
40059;SHT31;25763;49.972;8.568;2023-04-10T02:22:52;4.53;76.93
40059;SHT31;25763;49.972;8.568;2023-04-10T02:25:18;4.51;77.25
40059;SHT31;25763;49.972;8.568;2023-04-10T02:27:43;4.55;77.06
40059;SHT31;25763;49.972;8.568;2023-04-10T02:30:10;4.52;77.01
40059;SHT31;25763;49.972;8.568;2023-04-10T02:32:35;4.63;76.29
40059;SHT31;25763;49.972;8.568;2023-04-10T02:35:01;4.69;76.04
40059;SHT31;25763;49.972;8.568;2023-04-10T02:37:27;4.80;75.79
40059;SHT31;25763;49.972;8.568;2023-04-10T02:39:53;4.86;75.40
40059;SHT31;25763;49.972;8.568;2023-04-10T02:42:21;4.91;75.16
40059;SHT31;25763;49.972;8.568;2023-04-10T02:44:47;4.93;75.00
40059;SHT31;25763;49.972;8.568;2023-04-10T02:47:13;4.97;74.71
40059;SHT31;25763;49.972;8.568;2023-04-10T02:49:38;5.01;74.76
40059;SHT31;25763;49.972;8.568;2023-04-10T02:52:04;5.05;74.46
40059;SHT31;25763;49.972;8.568;2023-04-10T02:54:29;5.05;74.42
40059;SHT31;25763;49.972;8.568;2023-04-10T02:56:57;4.93;75.36
40059;SHT31;25763;49.972;8.568;2023-04-10T02:59:22;4.80;75.97
40059;SHT31;25763;49.972;8.568;2023-04-10T03:01:49;4.75;76.11
40059;SHT31;25763;49.972;8.568;2023-04-10T03:04:14;4.59;76.38
40059;SHT31;25763;49.972;8.568;2023-04-10T03:06:40;4.55;76.52
40059;SHT31;25763;49.972;8.568;2023-04-10T03:09:05;4.36;76.87
40059;SHT31;25763;49.972;8.568;2023-04-10T03:11:31;4.22;77.03
40059;SHT31;25763;49.972;8.568;2023-04-10T03:13:56;4.03;77.71
40059;SHT31;25763;49.972;8.568;2023-04-10T03:16:25;4.16;77.13
40059;SHT31;25763;49.972;8.568;2023-04-10T03:18:51;4.04;77.64
40059;SHT31;25763;49.972;8.568;2023-04-10T03:21:17;3.94;78.10
40059;SHT31;25763;49.972;8.568;2023-04-10T03:23:42;3.79;78.46
40059;SHT31;25763;49.972;8.568;2023-04-10T03:26:07;3.79;78.57
40059;SHT31;25763;49.972;8.568;2023-04-10T03:28:33;3.90;78.02
40059;SHT31;25763;49.972;8.568;2023-04-10T03:31:01;3.86;78.44
40059;SHT31;25763;49.972;8.568;2023-04-10T03:33:26;3.85;78.67
40059;SHT31;25763;49.972;8.568;2023-04-10T03:35:52;3.82;79.15
40059;SHT31;25763;49.972;8.568;2023-04-10T03:38:17;3.86;79.35
40059;SHT31;25763;49.972;8.568;2023-04-10T03:40:43;3.87;79.40
40059;SHT31;25763;49.972;8.568;2023-04-10T03:43:08;4.06;78.46
40059;SHT31;25763;49.972;8.568;2023-04-10T03:45:33;4.24;77.82
40059;SHT31;25763;49.972;8.568;2023-04-10T03:47:59;4.36;77.41
40059;SHT31;25763;49.972;8.568;2023-04-10T03:50:24;4.44;76.99
40059;SHT31;25763;49.972;8.568;2023-04-10T03:52:50;4.51;76.95
40059;SHT31;25763;49.972;8.568;2023-04-10T03:55:16;4.53;76.74
40059;SHT31;25763;49.972;8.568;2023-04-10T03:57:45;4.58;76.44
40059;SHT31;25763;49.972;8.568;2023-04-10T04:00:12;4.59;76.27
40059;SHT31;25763;49.972;8.568;2023-04-10T04:02:37;4.62;76.08
40059;SHT31;25763;49.972;8.568;2023-04-10T04:05:03;4.63;75.94
40059;SHT31;25763;49.972;8.568;2023-04-10T04:07:28;4.65;76.45
40059;SHT31;25763;49.972;8.568;2023-04-10T04:09:54;4.60;76.58
40059;SHT31;25763;49.972;8.568;2023-04-10T04:12:19;4.59;76.74
40059;SHT31;25763;49.972;8.568;2023-04-10T04:14:45;4.65;76.10
40059;SHT31;25763;49.972;8.568;2023-04-10T04:17:10;4.69;75.68
40059;SHT31;25763;49.972;8.568;2023-04-10T04:19:36;4.70;75.69
40059;SHT31;25763;49.972;8.568;2023-04-10T04:22:01;4.69;75.63
40059;SHT31;25763;49.972;8.568;2023-04-10T04:24:27;4.72;75.47
40059;SHT31;25763;49.972;8.568;2023-04-10T04:26:52;4.70;75.53
40059;SHT31;25763;49.972;8.568;2023-04-10T04:29:17;4.70;75.55
40059;SHT31;25763;49.972;8.568;2023-04-10T04:31:43;4.72;75.67
40059;SHT31;25763;49.972;8.568;2023-04-10T04:34:08;4.72;75.87
40059;SHT31;25763;49.972;8.568;2023-04-10T04:36:33;4.70;75.77
40059;SHT31;25763;49.972;8.568;2023-04-10T04:38:59;4.70;75.41
40059;SHT31;25763;49.972;8.568;2023-04-10T04:41:24;4.70;75.36
40059;SHT31;25763;49.972;8.568;2023-04-10T04:43:50;4.73;75.43
40059;SHT31;25763;49.972;8.568;2023-04-10T04:46:17;4.72;75.65
40059;SHT31;25763;49.972;8.568;2023-04-10T04:48:43;4.76;75.48
40059;SHT31;25763;49.972;8.568;2023-04-10T04:51:08;4.76;75.67
40059;SHT31;25763;49.972;8.568;2023-04-10T04:53:33;4.77;75.57
40059;SHT31;25763;49.972;8.568;2023-04-10T04:55:59;4.81;75.47
40059;SHT31;25763;49.972;8.568;2023-04-10T04:58:24;4.84;75.39
40059;SHT31;25763;49.972;8.568;2023-04-10T05:00:51;4.79;75.91
40059;SHT31;25763;49.972;8.568;2023-04-10T05:03:16;4.84;75.81
40059;SHT31;25763;49.972;8.568;2023-04-10T05:05:42;4.87;75.69
40059;SHT31;25763;49.972;8.568;2023-04-10T05:08:07;4.84;75.92
40059;SHT31;25763;49.972;8.568;2023-04-10T05:10:33;4.86;75.65
40059;SHT31;25763;49.972;8.568;2023-04-10T05:12:58;4.94;75.25
40059;SHT31;25763;49.972;8.568;2023-04-10T05:15:24;5.01;75.10
40059;SHT31;25763;49.972;8.568;2023-04-10T05:17:49;5.03;75.16
40059;SHT31;25763;49.972;8.568;2023-04-10T05:20:17;5.09;74.88
40059;SHT31;25763;49.972;8.568;2023-04-10T05:22:43;5.15;74.94
40059;SHT31;25763;49.972;8.568;2023-04-10T05:25:08;5.21;74.99
40059;SHT31;25763;49.972;8.568;2023-04-10T05:27:33;5.25;74.78
40059;SHT31;25763;49.972;8.568;2023-04-10T05:29:59;5.32;74.69
40059;SHT31;25763;49.972;8.568;2023-04-10T05:32:24;5.40;74.73
40059;SHT31;25763;49.972;8.568;2023-04-10T05:34:49;5.46;74.78
40059;SHT31;25763;49.972;8.568;2023-04-10T05:37:15;5.53;74.85
40059;SHT31;25763;49.972;8.568;2023-04-10T05:39:40;5.57;74.74
40059;SHT31;25763;49.972;8.568;2023-04-10T05:42:06;5.63;74.93
40059;SHT31;25763;49.972;8.568;2023-04-10T05:44:31;5.74;74.74
40059;SHT31;25763;49.972;8.568;2023-04-10T05:46:56;5.78;74.69
40059;SHT31;25763;49.972;8.568;2023-04-10T05:49:22;5.85;74.48
40059;SHT31;25763;49.972;8.568;2023-04-10T05:51:47;5.92;74.37
40059;SHT31;25763;49.972;8.568;2023-04-10T05:54:17;5.99;74.35
40059;SHT31;25763;49.972;8.568;2023-04-10T05:56:43;6.03;74.46
40059;SHT31;25763;49.972;8.568;2023-04-10T05:59:08;6.07;74.38
40059;SHT31;25763;49.972;8.568;2023-04-10T06:01:33;6.15;74.22
40059;SHT31;25763;49.972;8.568;2023-04-10T06:03:59;6.22;74.20
40059;SHT31;25763;49.972;8.568;2023-04-10T06:06:24;6.33;74.12
40059;SHT31;25763;49.972;8.568;2023-04-10T06:08:50;6.41;73.97
40059;SHT31;25763;49.972;8.568;2023-04-10T06:11:16;6.50;73.77
40059;SHT31;25763;49.972;8.568;2023-04-10T06:13:41;6.61;73.59
40059;SHT31;25763;49.972;8.568;2023-04-10T06:16:07;6.74;73.43
40059;SHT31;25763;49.972;8.568;2023-04-10T06:18:32;6.93;72.99
40059;SHT31;25763;49.972;8.568;2023-04-10T06:20:58;7.06;72.80
40059;SHT31;25763;49.972;8.568;2023-04-10T06:23:27;7.26;72.47
40059;SHT31;25763;49.972;8.568;2023-04-10T06:25:53;7.46;71.87
40059;SHT31;25763;49.972;8.568;2023-04-10T06:28:19;7.79;71.23
40059;SHT31;25763;49.972;8.568;2023-04-10T06:30:44;7.83;69.48
40059;SHT31;25763;49.972;8.568;2023-04-10T06:33:09;8.00;68.98
40059;SHT31;25763;49.972;8.568;2023-04-10T06:35:35;8.01;68.81
40059;SHT31;25763;49.972;8.568;2023-04-10T06:38:02;8.07;69.21
40059;SHT31;25763;49.972;8.568;2023-04-10T06:40:27;8.11;69.52
40059;SHT31;25763;49.972;8.568;2023-04-10T06:42:53;8.33;69.52
40059;SHT31;25763;49.972;8.568;2023-04-10T06:45:19;8.46;68.97
40059;SHT31;25763;49.972;8.568;2023-04-10T06:47:45;8.71;68.15
40059;SHT31;25763;49.972;8.568;2023-04-10T06:50:10;8.88;68.00
40059;SHT31;25763;49.972;8.568;2023-04-10T06:52:36;8.97;66.63
40059;SHT31;25763;49.972;8.568;2023-04-10T06:55:01;9.15;66.52
40059;SHT31;25763;49.972;8.568;2023-04-10T06:57:27;9.44;66.31
40059;SHT31;25763;49.972;8.568;2023-04-10T06:59:53;9.48;65.25
40059;SHT31;25763;49.972;8.568;2023-04-10T07:02:18;9.59;65.11
40059;SHT31;25763;49.972;8.568;2023-04-10T07:04:44;9.74;64.74
40059;SHT31;25763;49.972;8.568;2023-04-10T07:07:10;9.89;64.18
40059;SHT31;25763;49.972;8.568;2023-04-10T07:09:38;9.91;63.91
40059;SHT31;25763;49.972;8.568;2023-04-10T07:12:03;10.06;64.13
40059;SHT31;25763;49.972;8.568;2023-04-10T07:14:31;10.35;63.36
40059;SHT31;25763;49.972;8.568;2023-04-10T07:16:57;10.31;63.47
40059;SHT31;25763;49.972;8.568;2023-04-10T07:19:23;10.49;62.29
40059;SHT31;25763;49.972;8.568;2023-04-10T07:21:48;10.45;61.83
40059;SHT31;25763;49.972;8.568;2023-04-10T07:24:17;10.73;62.19
40059;SHT31;25763;49.972;8.568;2023-04-10T07:26:43;10.99;61.34
40059;SHT31;25763;49.972;8.568;2023-04-10T07:29:09;10.86;59.55
40059;SHT31;25763;49.972;8.568;2023-04-10T07:31:35;11.10;60.08
40059;SHT31;25763;49.972;8.568;2023-04-10T07:34:02;10.94;60.17
40059;SHT31;25763;49.972;8.568;2023-04-10T07:36:27;11.04;60.79
40059;SHT31;25763;49.972;8.568;2023-04-10T07:38:53;11.06;59.95
40059;SHT31;25763;49.972;8.568;2023-04-10T07:41:19;11.41;59.82
40059;SHT31;25763;49.972;8.568;2023-04-10T07:43:44;11.42;59.30
40059;SHT31;25763;49.972;8.568;2023-04-10T07:46:10;11.71;58.85
40059;SHT31;25763;49.972;8.568;2023-04-10T07:48:36;12.02;58.30
40059;SHT31;25763;49.972;8.568;2023-04-10T07:51:01;12.22;57.79
40059;SHT31;25763;49.972;8.568;2023-04-10T07:53:27;12.14;56.72
40059;SHT31;25763;49.972;8.568;2023-04-10T07:55:52;12.46;56.91
40059;SHT31;25763;49.972;8.568;2023-04-10T07:58:17;12.59;55.88
40059;SHT31;25763;49.972;8.568;2023-04-10T08:00:43;12.28;56.00
40059;SHT31;25763;49.972;8.568;2023-04-10T08:03:10;12.65;55.83
40059;SHT31;25763;49.972;8.568;2023-04-10T08:05:36;12.75;55.38
40059;SHT31;25763;49.972;8.568;2023-04-10T08:08:01;12.60;55.39
40059;SHT31;25763;49.972;8.568;2023-04-10T08:10:26;12.91;55.58
40059;SHT31;25763;49.972;8.568;2023-04-10T08:12:52;13.05;54.32
40059;SHT31;25763;49.972;8.568;2023-04-10T08:15:17;13.18;54.58
40059;SHT31;25763;49.972;8.568;2023-04-10T08:17:42;13.39;53.94
40059;SHT31;25763;49.972;8.568;2023-04-10T08:20:09;13.40;53.24
40059;SHT31;25763;49.972;8.568;2023-04-10T08:22:34;13.47;53.45
40059;SHT31;25763;49.972;8.568;2023-04-10T08:25:00;13.77;53.22
40059;SHT31;25763;49.972;8.568;2023-04-10T08:27:25;14.03;52.71
40059;SHT31;25763;49.972;8.568;2023-04-10T08:29:50;14.24;51.36
40059;SHT31;25763;49.972;8.568;2023-04-10T08:32:16;14.06;52.06
40059;SHT31;25763;49.972;8.568;2023-04-10T08:34:41;13.86;50.58
40059;SHT31;25763;49.972;8.568;2023-04-10T08:37:07;14.10;51.94
40059;SHT31;25763;49.972;8.568;2023-04-10T08:39:37;14.40;50.36
40059;SHT31;25763;49.972;8.568;2023-04-10T08:42:05;14.45;50.22
40059;SHT31;25763;49.972;8.568;2023-04-10T08:44:30;14.69;49.73
40059;SHT31;25763;49.972;8.568;2023-04-10T08:46:59;14.41;49.44
40059;SHT31;25763;49.972;8.568;2023-04-10T08:52:00;14.65;50.05
40059;SHT31;25763;49.972;8.568;2023-04-10T08:54:28;15.10;49.44
40059;SHT31;25763;49.972;8.568;2023-04-10T08:56:55;14.79;48.45
40059;SHT31;25763;49.972;8.568;2023-04-10T08:59:21;14.76;48.91
40059;SHT31;25763;49.972;8.568;2023-04-10T09:01:47;14.86;48.41
40059;SHT31;25763;49.972;8.568;2023-04-10T09:04:12;14.62;49.16
40059;SHT31;25763;49.972;8.568;2023-04-10T09:06:38;14.77;48.72
40059;SHT31;25763;49.972;8.568;2023-04-10T09:09:07;14.89;48.99
40059;SHT31;25763;49.972;8.568;2023-04-10T09:14:23;15.51;47.88
40059;SHT31;25763;49.972;8.568;2023-04-10T09:16:50;15.86;46.90
40059;SHT31;25763;49.972;8.568;2023-04-10T09:19:28;15.56;46.81
40059;SHT31;25763;49.972;8.568;2023-04-10T09:21:55;15.38;47.07
40059;SHT31;25763;49.972;8.568;2023-04-10T09:24:22;15.53;47.82
40059;SHT31;25763;49.972;8.568;2023-04-10T09:26:47;15.45;47.23
40059;SHT31;25763;49.972;8.568;2023-04-10T09:29:12;15.39;47.87
40059;SHT31;25763;49.972;8.568;2023-04-10T09:31:38;15.97;47.13
40059;SHT31;25763;49.972;8.568;2023-04-10T09:34:15;15.90;45.85
40059;SHT31;25763;49.972;8.568;2023-04-10T09:36:52;16.42;46.56
40059;SHT31;25763;49.972;8.568;2023-04-10T09:39:18;16.38;45.82
40059;SHT31;25763;49.972;8.568;2023-04-10T09:41:51;16.32;45.52
40059;SHT31;25763;49.972;8.568;2023-04-10T09:44:27;16.11;45.32
40059;SHT31;25763;49.972;8.568;2023-04-10T09:46:53;15.80;45.42
40059;SHT31;25763;49.972;8.568;2023-04-10T09:49:19;16.33;46.81
40059;SHT31;25763;49.972;8.568;2023-04-10T09:51:44;16.63;45.15
40059;SHT31;25763;49.972;8.568;2023-04-10T09:54:11;16.80;44.54
40059;SHT31;25763;49.972;8.568;2023-04-10T09:56:37;17.29;44.22
40059;SHT31;25763;49.972;8.568;2023-04-10T09:59:05;17.05;42.90
40059;SHT31;25763;49.972;8.568;2023-04-10T10:01:32;16.71;43.35
40059;SHT31;25763;49.972;8.568;2023-04-10T10:04:03;16.94;43.56
40059;SHT31;25763;49.972;8.568;2023-04-10T10:06:31;16.90;41.51
40059;SHT31;25763;49.972;8.568;2023-04-10T10:09:02;17.15;41.54
40059;SHT31;25763;49.972;8.568;2023-04-10T10:11:29;17.41;40.99
40059;SHT31;25763;49.972;8.568;2023-04-10T10:13:55;17.92;41.79
40059;SHT31;25763;49.972;8.568;2023-04-10T10:16:42;17.98;39.42
40059;SHT31;25763;49.972;8.568;2023-04-10T10:19:16;18.06;36.53
40059;SHT31;25763;49.972;8.568;2023-04-10T10:21:44;18.00;34.81
40059;SHT31;25763;49.972;8.568;2023-04-10T10:24:12;18.34;36.21
40059;SHT31;25763;49.972;8.568;2023-04-10T10:26:38;18.50;36.85
40059;SHT31;25763;49.972;8.568;2023-04-10T10:29:06;18.61;37.27
40059;SHT31;25763;49.972;8.568;2023-04-10T10:31:34;18.59;37.59
40059;SHT31;25763;49.972;8.568;2023-04-10T10:34:02;18.58;36.90
40059;SHT31;25763;49.972;8.568;2023-04-10T10:36:29;18.69;36.77
40059;SHT31;25763;49.972;8.568;2023-04-10T10:39:55;19.06;36.38
40059;SHT31;25763;49.972;8.568;2023-04-10T10:42:01;18.97;36.22
40059;SHT31;25763;49.972;8.568;2023-04-10T10:44:41;19.15;35.77
40059;SHT31;25763;49.972;8.568;2023-04-10T10:47:18;18.67;35.48
40059;SHT31;25763;49.972;8.568;2023-04-10T10:55:37;19.14;34.55
40059;SHT31;25763;49.972;8.568;2023-04-10T10:58:06;18.85;33.38
40059;SHT31;25763;49.972;8.568;2023-04-10T11:06:01;19.67;34.77
40059;SHT31;25763;49.972;8.568;2023-04-10T11:08:44;19.53;34.38
40059;SHT31;25763;49.972;8.568;2023-04-10T11:11:23;19.30;34.02
40059;SHT31;25763;49.972;8.568;2023-04-10T11:16:21;19.14;34.10
40059;SHT31;25763;49.972;8.568;2023-04-10T11:21:20;19.45;35.03
40059;SHT31;25763;49.972;8.568;2023-04-10T11:29:02;19.63;35.02
40059;SHT31;25763;49.972;8.568;2023-04-10T11:31:27;19.51;33.58
40059;SHT31;25763;49.972;8.568;2023-04-10T11:36:23;19.23;33.60
40059;SHT31;25763;49.972;8.568;2023-04-10T11:39:08;19.62;33.91
40059;SHT31;25763;49.972;8.568;2023-04-10T11:41:41;19.65;32.17
40059;SHT31;25763;49.972;8.568;2023-04-10T11:44:12;19.76;33.30
40059;SHT31;25763;49.972;8.568;2023-04-10T11:46:39;20.25;33.94
40059;SHT31;25763;49.972;8.568;2023-04-10T11:49:06;20.07;32.89
40059;SHT31;25763;49.972;8.568;2023-04-10T11:51:32;19.56;33.23
40059;SHT31;25763;49.972;8.568;2023-04-10T11:54:12;19.35;32.84
40059;SHT31;25763;49.972;8.568;2023-04-10T11:56:39;19.28;33.10
40059;SHT31;25763;49.972;8.568;2023-04-10T11:59:05;19.28;33.18
40059;SHT31;25763;49.972;8.568;2023-04-10T12:01:43;19.51;32.68
40059;SHT31;25763;49.972;8.568;2023-04-10T12:04:20;19.81;32.33
40059;SHT31;25763;49.972;8.568;2023-04-10T12:06:56;19.76;31.55
40059;SHT31;25763;49.972;8.568;2023-04-10T12:09:22;19.66;31.95
40059;SHT31;25763;49.972;8.568;2023-04-10T12:14:14;19.63;32.54
40059;SHT31;25763;49.972;8.568;2023-04-10T12:16:40;19.70;31.89
40059;SHT31;25763;49.972;8.568;2023-04-10T12:19:06;19.70;32.25
40059;SHT31;25763;49.972;8.568;2023-04-10T12:21:34;19.83;32.29
40059;SHT31;25763;49.972;8.568;2023-04-10T12:24:00;19.45;32.25
40059;SHT31;25763;49.972;8.568;2023-04-10T12:26:25;19.61;31.96
40059;SHT31;25763;49.972;8.568;2023-04-10T12:28:55;19.90;32.38
40059;SHT31;25763;49.972;8.568;2023-04-10T12:31:28;19.77;31.66
40059;SHT31;25763;49.972;8.568;2023-04-10T12:33:54;20.04;31.57
40059;SHT31;25763;49.972;8.568;2023-04-10T12:36:26;20.07;31.08
40059;SHT31;25763;49.972;8.568;2023-04-10T12:38:59;20.07;32.02
40059;SHT31;25763;49.972;8.568;2023-04-10T12:41:28;20.21;31.24
40059;SHT31;25763;49.972;8.568;2023-04-10T12:44:09;20.04;30.29
40059;SHT31;25763;49.972;8.568;2023-04-10T12:46:35;20.28;31.28
40059;SHT31;25763;49.972;8.568;2023-04-10T12:49:14;20.32;30.72
40059;SHT31;25763;49.972;8.568;2023-04-10T12:51:47;20.12;31.00
40059;SHT31;25763;49.972;8.568;2023-04-10T12:54:32;20.03;31.43
40059;SHT31;25763;49.972;8.568;2023-04-10T12:56:58;20.00;32.15
40059;SHT31;25763;49.972;8.568;2023-04-10T12:59:25;20.12;32.16
40059;SHT31;25763;49.972;8.568;2023-04-10T13:01:51;20.10;32.20
40059;SHT31;25763;49.972;8.568;2023-04-10T13:04:17;20.21;33.60
40059;SHT31;25763;49.972;8.568;2023-04-10T13:06:46;19.87;32.79
40059;SHT31;25763;49.972;8.568;2023-04-10T13:09:12;19.94;33.43
40059;SHT31;25763;49.972;8.568;2023-04-10T13:11:39;20.04;33.49
40059;SHT31;25763;49.972;8.568;2023-04-10T13:14:04;20.11;33.59
40059;SHT31;25763;49.972;8.568;2023-04-10T13:16:30;20.05;33.22
40059;SHT31;25763;49.972;8.568;2023-04-10T13:18:55;20.07;32.28
40059;SHT31;25763;49.972;8.568;2023-04-10T13:21:21;19.91;32.72
40059;SHT31;25763;49.972;8.568;2023-04-10T13:23:51;19.76;32.65
40059;SHT31;25763;49.972;8.568;2023-04-10T13:26:17;19.61;33.07
40059;SHT31;25763;49.972;8.568;2023-04-10T13:28:43;19.76;33.70
40059;SHT31;25763;49.972;8.568;2023-04-10T13:31:08;19.88;33.57
40059;SHT31;25763;49.972;8.568;2023-04-10T13:33:33;19.76;32.65
40059;SHT31;25763;49.972;8.568;2023-04-10T13:35:59;19.83;33.51
40059;SHT31;25763;49.972;8.568;2023-04-10T13:38:25;19.74;32.67
40059;SHT31;25763;49.972;8.568;2023-04-10T13:40:52;19.77;33.23
40059;SHT31;25763;49.972;8.568;2023-04-10T13:43:17;19.90;32.56
40059;SHT31;25763;49.972;8.568;2023-04-10T13:45:42;19.72;32.06
40059;SHT31;25763;49.972;8.568;2023-04-10T13:48:08;19.83;33.17
40059;SHT31;25763;49.972;8.568;2023-04-10T13:50:33;19.98;33.04
40059;SHT31;25763;49.972;8.568;2023-04-10T13:52:58;19.84;31.98
40059;SHT31;25763;49.972;8.568;2023-04-10T13:55:24;19.86;31.79
40059;SHT31;25763;49.972;8.568;2023-04-10T13:57:49;20.10;32.72
40059;SHT31;25763;49.972;8.568;2023-04-10T14:00:16;20.22;31.15
40059;SHT31;25763;49.972;8.568;2023-04-10T14:02:42;20.05;30.76
40059;SHT31;25763;49.972;8.568;2023-04-10T14:05:07;19.97;31.29
40059;SHT31;25763;49.972;8.568;2023-04-10T14:07:33;20.24;31.54
40059;SHT31;25763;49.972;8.568;2023-04-10T14:09:59;20.25;32.14
40059;SHT31;25763;49.972;8.568;2023-04-10T14:12:25;20.14;31.81
40059;SHT31;25763;49.972;8.568;2023-04-10T14:14:51;20.07;31.14
40059;SHT31;25763;49.972;8.568;2023-04-10T14:17:16;20.04;31.52
40059;SHT31;25763;49.972;8.568;2023-04-10T14:19:42;20.18;30.59
40059;SHT31;25763;49.972;8.568;2023-04-10T14:22:07;20.24;29.35
40059;SHT31;25763;49.972;8.568;2023-04-10T14:24:33;20.43;28.94
40059;SHT31;25763;49.972;8.568;2023-04-10T14:26:58;20.11;28.80
40059;SHT31;25763;49.972;8.568;2023-04-10T14:29:27;20.21;29.12
40059;SHT31;25763;49.972;8.568;2023-04-10T14:31:52;20.03;28.82
40059;SHT31;25763;49.972;8.568;2023-04-10T14:34:17;19.94;28.40
40059;SHT31;25763;49.972;8.568;2023-04-10T14:36:43;19.73;29.43
40059;SHT31;25763;49.972;8.568;2023-04-10T14:39:08;19.91;28.90
40059;SHT31;25763;49.972;8.568;2023-04-10T14:41:34;20.05;28.72
40059;SHT31;25763;49.972;8.568;2023-04-10T14:44:01;20.18;28.60
40059;SHT31;25763;49.972;8.568;2023-04-10T14:46:26;20.07;29.82
40059;SHT31;25763;49.972;8.568;2023-04-10T14:48:52;20.11;28.98
40059;SHT31;25763;49.972;8.568;2023-04-10T14:51:17;20.14;29.28
40059;SHT31;25763;49.972;8.568;2023-04-10T14:53:44;19.94;30.02
40059;SHT31;25763;49.972;8.568;2023-04-10T14:56:13;19.65;31.37
40059;SHT31;25763;49.972;8.568;2023-04-10T14:58:40;19.63;29.69
40059;SHT31;25763;49.972;8.568;2023-04-10T15:01:10;19.61;29.24
40059;SHT31;25763;49.972;8.568;2023-04-10T15:03:36;19.55;30.40
40059;SHT31;25763;49.972;8.568;2023-04-10T15:06:02;19.44;29.93
40059;SHT31;25763;49.972;8.568;2023-04-10T15:08:28;19.41;30.62
40059;SHT31;25763;49.972;8.568;2023-04-10T15:10:53;19.37;30.40
40059;SHT31;25763;49.972;8.568;2023-04-10T15:13:22;19.26;30.67
40059;SHT31;25763;49.972;8.568;2023-04-10T15:15:48;19.31;30.79
40059;SHT31;25763;49.972;8.568;2023-04-10T15:18:14;19.51;31.61
40059;SHT31;25763;49.972;8.568;2023-04-10T15:20:40;19.41;31.30
40059;SHT31;25763;49.972;8.568;2023-04-10T15:23:05;19.41;32.27
40059;SHT31;25763;49.972;8.568;2023-04-10T15:25:32;19.31;31.23
40059;SHT31;25763;49.972;8.568;2023-04-10T15:27:57;19.08;31.43
40059;SHT31;25763;49.972;8.568;2023-04-10T15:30:22;19.12;31.34
40059;SHT31;25763;49.972;8.568;2023-04-10T15:32:48;19.08;31.66
40059;SHT31;25763;49.972;8.568;2023-04-10T15:35:13;19.10;31.41
40059;SHT31;25763;49.972;8.568;2023-04-10T15:37:39;19.21;31.95
40059;SHT31;25763;49.972;8.568;2023-04-10T15:40:05;19.18;31.80
40059;SHT31;25763;49.972;8.568;2023-04-10T15:42:31;19.14;30.86
40059;SHT31;25763;49.972;8.568;2023-04-10T15:44:56;19.21;31.65
40059;SHT31;25763;49.972;8.568;2023-04-10T15:47:22;19.37;32.02
40059;SHT31;25763;49.972;8.568;2023-04-10T15:49:47;19.46;31.62
40059;SHT31;25763;49.972;8.568;2023-04-10T15:52:12;19.35;31.38
40059;SHT31;25763;49.972;8.568;2023-04-10T15:54:38;19.30;31.50
40059;SHT31;25763;49.972;8.568;2023-04-10T15:57:04;19.46;31.27
40059;SHT31;25763;49.972;8.568;2023-04-10T15:59:30;19.45;31.16
40059;SHT31;25763;49.972;8.568;2023-04-10T16:01:56;19.30;31.20
40059;SHT31;25763;49.972;8.568;2023-04-10T16:04:22;19.17;30.60
40059;SHT31;25763;49.972;8.568;2023-04-10T16:06:47;19.18;31.53
40059;SHT31;25763;49.972;8.568;2023-04-10T16:09:13;19.17;31.22
40059;SHT31;25763;49.972;8.568;2023-04-10T16:11:38;19.11;31.50
40059;SHT31;25763;49.972;8.568;2023-04-10T16:14:03;19.00;31.12
40059;SHT31;25763;49.972;8.568;2023-04-10T16:16:29;18.92;31.45